createdAt,value
2019-02-06T00:00:32.608Z,39.53
2019-02-06T00:03:00.604Z,43.40
2019-02-06T00:05:28.531Z,40.25
2019-02-06T00:07:56.683Z,38.83
2019-02-06T00:10:24.923Z,40.10
2019-02-06T00:12:52.851Z,41.13
2019-02-06T00:15:20.818Z,42.90
2019-02-06T00:17:49.945Z,47.20
2019-02-06T00:20:17.931Z,40.00
2019-02-06T00:22:46.175Z,42.55
2019-02-06T00:25:14.326Z,43.17
2019-02-06T00:27:42.485Z,41.33
2019-02-06T00:30:14.323Z,41.33
2019-02-06T00:32:42.251Z,46.40
2019-02-06T00:35:10.178Z,43.15
2019-02-06T00:37:38.473Z,38.58
2019-02-06T00:40:08.030Z,49.33
2019-02-06T00:42:35.944Z,44.38
2019-02-06T00:45:05.261Z,49.18
2019-02-06T00:47:33.175Z,45.55
2019-02-06T00:50:01.091Z,48.13
2019-02-06T00:52:29.015Z,50.17
2019-02-06T00:54:57.336Z,50.92
2019-02-06T00:57:25.250Z,50.90
2019-02-06T00:59:53.412Z,55.08
2019-02-06T01:02:21.335Z,54.42
2019-02-06T01:04:49.260Z,56.25
2019-02-06T01:07:17.190Z,54.85
2019-02-06T01:09:45.342Z,58.35
2019-02-06T01:12:13.559Z,52.27
2019-02-06T01:14:41.484Z,58.48
2019-02-06T01:17:09.412Z,59.88
2019-02-06T01:19:37.331Z,60.17
2019-02-06T01:22:05.258Z,64.27
2019-02-06T01:24:33.439Z,68.05
2019-02-06T01:27:01.352Z,68.07
2019-02-06T01:29:29.651Z,62.95
2019-02-06T01:31:57.599Z,64.20
2019-02-06T01:34:25.513Z,62.40
2019-02-06T01:36:53.435Z,71.15
2019-02-06T01:39:21.595Z,63.87
2019-02-06T01:41:49.523Z,68.92
2019-02-06T01:44:17.446Z,59.03
2019-02-06T01:46:45.983Z,68.52
2019-02-06T01:49:13.908Z,63.90
2019-02-06T01:51:41.834Z,56.10
2019-02-06T01:54:09.995Z,58.58
2019-02-06T01:56:38.155Z,62.70
2019-02-06T01:59:06.316Z,64.12
2019-02-06T02:01:34.255Z,58.90
2019-02-06T02:04:02.250Z,61.98
2019-02-06T02:06:31.275Z,65.62
2019-02-06T02:09:00.687Z,66.90
2019-02-06T02:11:30.223Z,68.62
2019-02-06T02:13:58.150Z,63.23
2019-02-06T02:16:26.075Z,71.55
2019-02-06T02:18:53.996Z,69.35
2019-02-06T02:21:22.323Z,60.40
2019-02-06T02:23:50.239Z,63.38
2019-02-06T02:26:18.403Z,63.28
2019-02-06T02:28:46.327Z,67.90
2019-02-06T02:31:14.572Z,70.47
2019-02-06T02:33:42.492Z,73.92
2019-02-06T02:36:15.960Z,70.40
2019-02-06T02:38:40.059Z,61.45
2019-02-06T02:41:07.977Z,74.85
2019-02-06T02:43:35.903Z,64.30
2019-02-06T02:46:03.827Z,65.17
2019-02-06T02:48:32.044Z,69.55
2019-02-06T02:50:59.963Z,64.50
2019-02-06T02:53:28.174Z,62.65
2019-02-06T02:55:56.088Z,63.38
2019-02-06T02:58:24.012Z,68.15
2019-02-06T03:00:56.412Z,58.70
2019-02-06T03:03:44.297Z,61.65
2019-02-06T03:06:12.568Z,57.25
2019-02-06T03:08:40.484Z,66.53
2019-02-06T03:11:08.412Z,62.88
2019-02-06T03:13:36.336Z,66.90
2019-02-06T03:16:04.502Z,60.75
2019-02-06T03:18:32.695Z,52.98
2019-02-06T03:21:00.867Z,51.58
2019-02-06T03:23:28.857Z,60.52
2019-02-06T03:25:56.800Z,61.55
2019-02-06T03:28:24.724Z,56.13
2019-02-06T03:30:52.644Z,58.45
2019-02-06T03:33:20.579Z,57.10
2019-02-06T03:35:48.736Z,60.15
2019-02-06T03:38:16.679Z,67.08
2019-02-06T03:40:44.612Z,64.20
2019-02-06T03:43:12.537Z,60.90
2019-02-06T03:45:40.687Z,62.80
2019-02-06T03:48:08.610Z,66.33
2019-02-06T03:50:36.857Z,66.62
2019-02-06T03:53:04.779Z,59.83
2019-02-06T03:55:32.711Z,63.80
2019-02-06T03:58:00.803Z,62.13
2019-02-06T04:00:28.732Z,57.58
2019-02-06T04:02:56.923Z,61.18
2019-02-06T04:05:24.851Z,63.00
2019-02-06T04:07:53.075Z,58.38
2019-02-06T04:10:21.005Z,55.67
2019-02-06T04:12:48.923Z,56.08
2019-02-06T04:15:17.126Z,61.95
2019-02-06T04:17:45.282Z,57.33
2019-02-06T04:20:14.100Z,55.30
2019-02-06T04:22:42.263Z,59.08
2019-02-06T04:25:10.854Z,56.75
2019-02-06T04:27:38.793Z,56.42
2019-02-06T04:30:08.993Z,56.20
2019-02-06T04:32:36.920Z,56.48
2019-02-06T04:35:06.507Z,51.48
2019-02-06T04:37:34.746Z,53.15
2019-02-06T04:40:02.662Z,57.93
2019-02-06T04:42:31.757Z,57.25
2019-02-06T04:45:00.330Z,59.30
2019-02-06T04:47:28.444Z,51.83
2019-02-06T04:49:56.359Z,57.98
2019-02-06T04:52:24.288Z,55.83
2019-02-06T04:54:52.209Z,47.90
2019-02-06T04:57:20.151Z,46.20
2019-02-06T04:59:48.303Z,48.08
2019-02-06T05:02:16.227Z,46.63
2019-02-06T05:04:45.499Z,49.90
2019-02-06T05:07:19.532Z,50.40
2019-02-06T05:09:43.351Z,57.60
2019-02-06T05:12:11.271Z,58.52
2019-02-06T05:14:39.196Z,58.35
2019-02-06T05:17:07.343Z,52.65
2019-02-06T05:19:35.282Z,57.05
2019-02-06T05:22:03.195Z,56.73
2019-02-06T05:24:31.112Z,56.00
2019-02-06T05:26:59.634Z,55.78
2019-02-06T05:29:27.774Z,54.55
2019-02-06T05:31:55.697Z,47.10
2019-02-06T05:34:23.633Z,60.58
2019-02-06T05:36:51.816Z,58.90
2019-02-06T05:39:19.731Z,55.03
2019-02-06T05:41:47.654Z,57.58
2019-02-06T05:44:15.840Z,53.78
2019-02-06T05:46:43.772Z,51.98
2019-02-06T05:49:11.723Z,56.18
2019-02-06T05:51:39.630Z,59.88
2019-02-06T05:54:07.566Z,56.10
2019-02-06T05:56:35.950Z,55.85
2019-02-06T05:59:03.880Z,50.92
2019-02-06T06:01:31.802Z,55.33
2019-02-06T06:03:59.739Z,57.30
2019-02-06T06:06:27.907Z,56.48
2019-02-06T06:08:55.831Z,57.00
2019-02-06T06:11:23.990Z,56.15
2019-02-06T06:13:52.522Z,60.45
2019-02-06T06:16:21.919Z,57.78
2019-02-06T06:18:49.848Z,56.58
2019-02-06T06:21:17.776Z,55.75
2019-02-06T06:23:45.928Z,54.85
2019-02-06T06:26:13.858Z,52.98
2019-02-06T06:28:41.774Z,61.80
2019-02-06T06:31:09.704Z,57.40
2019-02-06T06:33:37.619Z,56.83
2019-02-06T06:36:06.863Z,57.78
2019-02-06T06:38:34.787Z,62.43
2019-02-06T06:41:02.944Z,53.08
2019-02-06T06:43:31.108Z,54.80
2019-02-06T06:45:59.023Z,55.80
2019-02-06T06:48:27.473Z,55.45
2019-02-06T06:50:55.526Z,52.62
2019-02-06T06:53:23.455Z,58.05
2019-02-06T06:55:51.370Z,58.58
2019-02-06T06:58:19.626Z,55.55
2019-02-06T07:00:47.543Z,52.58
2019-02-06T07:03:15.463Z,56.50
2019-02-06T07:05:43.759Z,58.48
2019-02-06T07:08:13.532Z,56.33
2019-02-06T07:10:41.540Z,58.78
2019-02-06T07:13:09.462Z,56.68
2019-02-06T07:15:37.675Z,56.20
2019-02-06T07:18:05.611Z,58.17
2019-02-06T07:20:33.531Z,58.87
2019-02-06T07:23:01.731Z,59.77
2019-02-06T07:25:29.684Z,61.28
2019-02-06T07:27:57.600Z,60.43
2019-02-06T07:30:28.402Z,60.60
2019-02-06T07:32:56.335Z,56.68
2019-02-06T07:35:24.255Z,58.90
2019-02-06T07:37:52.182Z,65.83
2019-02-06T07:40:20.099Z,61.30
2019-02-06T07:42:48.027Z,57.90
2019-02-06T07:45:16.519Z,56.08
2019-02-06T07:47:44.459Z,54.18
2019-02-06T07:50:14.248Z,57.67
2019-02-06T07:52:42.170Z,57.05
2019-02-06T07:55:10.095Z,55.50
2019-02-06T07:57:38.024Z,58.83
2019-02-06T08:00:06.778Z,53.00
2019-02-06T08:02:34.775Z,58.35
2019-02-06T08:05:03.138Z,53.78
2019-02-06T08:07:31.299Z,55.03
2019-02-06T08:09:59.239Z,55.67
2019-02-06T08:12:27.167Z,59.53
2019-02-06T08:14:55.119Z,54.53
2019-02-06T08:17:23.034Z,53.85
2019-02-06T08:19:50.954Z,60.10
2019-02-06T08:22:18.879Z,48.92
2019-02-06T08:24:46.794Z,53.83
2019-02-06T08:27:14.767Z,50.85
2019-02-06T08:29:42.674Z,53.42
2019-02-06T08:32:10.603Z,48.83
2019-02-06T08:34:38.763Z,52.08
2019-02-06T08:37:06.755Z,47.15
2019-02-06T08:39:34.696Z,50.73
2019-02-06T08:42:03.319Z,44.88
2019-02-06T08:44:32.040Z,48.13
2019-02-06T08:47:00.837Z,45.05
2019-02-06T08:49:29.071Z,50.23
2019-02-06T08:51:57.020Z,45.90
2019-02-06T08:54:24.935Z,51.13
2019-02-06T08:56:52.859Z,49.63
2019-02-06T08:59:21.015Z,45.17
2019-02-06T09:01:48.947Z,46.90
2019-02-06T09:04:17.153Z,50.40
2019-02-06T09:06:45.072Z,43.92
2019-02-06T09:09:12.994Z,48.65
2019-02-06T09:11:40.987Z,45.33
2019-02-06T09:14:08.947Z,44.85
2019-02-06T09:16:36.867Z,47.95
2019-02-06T09:19:04.860Z,45.75
2019-02-06T09:21:33.159Z,48.87
2019-02-06T09:24:01.090Z,48.52
2019-02-06T09:26:29.003Z,53.78
2019-02-06T09:28:56.924Z,47.38
2019-02-06T09:31:24.851Z,47.15
2019-02-06T09:33:52.770Z,55.33
2019-02-06T09:36:20.695Z,45.92
2019-02-06T09:38:48.996Z,47.73
2019-02-06T09:41:16.935Z,47.03
2019-02-06T09:43:44.855Z,47.48
2019-02-06T09:46:12.775Z,46.75
2019-02-06T09:48:40.931Z,45.35
2019-02-06T09:51:09.812Z,47.27
2019-02-06T09:53:37.739Z,43.92
2019-02-06T09:56:06.275Z,45.20
2019-02-06T09:58:34.203Z,44.63
2019-02-06T10:01:02.431Z,42.95
2019-02-06T10:03:30.445Z,44.18
2019-02-06T10:05:58.592Z,43.98
2019-02-06T10:08:26.511Z,47.50
2019-02-06T10:10:54.439Z,46.65
2019-02-06T10:13:23.806Z,51.25
2019-02-06T10:15:51.740Z,44.38
2019-02-06T10:18:19.778Z,44.18
2019-02-06T10:20:48.147Z,45.98
2019-02-06T10:23:16.069Z,41.58
2019-02-06T10:25:44.003Z,47.27
2019-02-06T10:28:12.155Z,46.68
2019-02-06T10:30:42.320Z,43.15
2019-02-06T10:33:10.238Z,45.58
2019-02-06T10:35:38.166Z,42.67
2019-02-06T10:38:06.087Z,43.05
2019-02-06T10:40:34.015Z,44.85
2019-02-06T10:43:01.948Z,42.08
2019-02-06T10:45:29.959Z,45.45
2019-02-06T10:47:58.155Z,43.52
2019-02-06T10:50:27.548Z,45.30
2019-02-06T10:52:55.708Z,45.98
2019-02-06T10:55:23.876Z,43.40
2019-02-06T10:57:51.799Z,42.93
2019-02-06T11:00:24.279Z,45.40
2019-02-06T11:02:52.779Z,47.60
2019-02-06T11:05:20.711Z,48.28
2019-02-06T11:07:48.684Z,44.25
2019-02-06T11:10:18.260Z,50.25
2019-02-06T11:12:46.189Z,47.95
2019-02-06T11:15:14.116Z,46.45
2019-02-06T11:17:42.055Z,45.17
2019-02-06T11:20:12.019Z,43.78
2019-02-06T11:22:39.939Z,47.70
2019-02-06T11:25:09.139Z,43.95
2019-02-06T11:27:38.139Z,45.83
2019-02-06T11:30:07.685Z,45.48
2019-02-06T11:32:35.603Z,42.95
2019-02-06T11:35:05.392Z,42.35
2019-02-06T11:37:33.312Z,42.25
2019-02-06T11:40:01.529Z,42.73
2019-02-06T11:42:30.427Z,38.78
2019-02-06T11:44:58.575Z,42.00
2019-02-06T11:47:26.499Z,40.60
2019-02-06T11:49:56.291Z,39.90
2019-02-06T11:52:24.825Z,40.75
2019-02-06T11:54:52.763Z,36.35
2019-02-06T11:57:20.698Z,39.58
2019-02-06T11:59:48.611Z,34.40
2019-02-06T12:02:18.239Z,39.67
2019-02-06T12:04:46.162Z,38.17
2019-02-06T12:07:14.083Z,36.93
2019-02-06T12:09:42.011Z,39.23
2019-02-06T12:12:09.930Z,40.98
2019-02-06T12:14:37.859Z,37.75
2019-02-06T12:17:05.781Z,37.75
2019-02-06T12:19:33.712Z,38.15
2019-02-06T12:22:01.632Z,39.33
2019-02-06T12:24:29.562Z,40.33
2019-02-06T12:26:57.767Z,40.20
2019-02-06T12:29:25.687Z,41.90
2019-02-06T12:31:53.630Z,45.08
2019-02-06T12:34:21.549Z,43.17
2019-02-06T12:36:49.695Z,43.42
2019-02-06T12:39:17.626Z,45.23
2019-02-06T12:41:45.779Z,45.55
2019-02-06T12:44:13.723Z,45.73
2019-02-06T12:46:42.018Z,43.65
2019-02-06T12:49:10.167Z,41.68
2019-02-06T12:51:38.095Z,46.75
2019-02-06T12:54:06.015Z,43.35
2019-02-06T12:56:33.939Z,44.20
2019-02-06T12:59:02.151Z,41.05
2019-02-06T13:01:30.112Z,40.25
2019-02-06T13:03:58.263Z,40.28
2019-02-06T13:06:26.463Z,40.00
2019-02-06T13:08:54.548Z,37.73
2019-02-06T13:11:22.434Z,37.03
2019-02-06T13:13:50.357Z,38.58
2019-02-06T13:16:18.286Z,39.38
2019-02-06T13:18:46.459Z,39.75
2019-02-06T13:21:14.404Z,43.35
2019-02-06T13:23:42.360Z,41.83
2019-02-06T13:26:11.249Z,41.83
2019-02-06T13:28:39.187Z,39.65
2019-02-06T13:31:07.336Z,39.92
2019-02-06T13:33:35.259Z,42.38
2019-02-06T13:36:05.636Z,40.08
2019-02-06T13:38:33.937Z,42.53
2019-02-06T13:41:01.863Z,42.80
2019-02-06T13:43:29.783Z,42.95
2019-02-06T13:45:57.711Z,42.65
2019-02-06T13:48:25.627Z,43.10
2019-02-06T13:50:53.555Z,42.95
2019-02-06T13:53:21.841Z,42.53
2019-02-06T13:55:50.295Z,46.50
2019-02-06T13:58:20.347Z,45.40
2019-02-06T14:00:47.895Z,44.23
2019-02-06T14:03:15.823Z,46.37
2019-02-06T14:05:46.760Z,49.18
2019-02-06T14:08:14.307Z,48.92
2019-02-06T14:10:42.604Z,47.95
2019-02-06T14:13:10.745Z,48.28
2019-02-06T14:15:39.759Z,46.42
2019-02-06T14:18:07.691Z,47.85
2019-02-06T14:20:36.907Z,46.92
2019-02-06T14:23:06.462Z,45.85
2019-02-06T14:25:44.999Z,47.65
2019-02-06T14:28:14.552Z,43.90
2019-02-06T14:31:02.212Z,42.98
2019-02-06T14:33:37.897Z,44.95
2019-02-06T14:36:07.443Z,47.50
2019-02-06T14:38:42.687Z,49.45
2019-02-06T14:41:21.219Z,46.80
2019-02-06T14:43:51.564Z,47.95
2019-02-06T14:46:33.181Z,48.05
2019-02-06T14:49:12.102Z,46.88
2019-02-06T14:51:44.894Z,48.55
2019-02-06T14:54:23.219Z,51.08
2019-02-06T14:56:52.783Z,52.10
2019-02-06T14:59:28.305Z,51.30
2019-02-06T15:02:01.027Z,51.10
2019-02-06T15:04:30.577Z,51.00
2019-02-06T15:07:16.703Z,47.88
2019-02-06T15:10:04.953Z,47.67
2019-02-06T15:12:37.183Z,49.13
2019-02-06T15:15:07.039Z,51.77
2019-02-06T15:17:42.787Z,49.83
2019-02-06T15:20:12.349Z,47.05
2019-02-06T15:22:44.923Z,50.55
2019-02-06T15:25:14.799Z,52.88
2019-02-06T15:27:54.037Z,48.55
2019-02-06T15:30:40.158Z,53.00
2019-02-06T15:33:26.655Z,53.28
2019-02-06T15:35:57.870Z,52.93
2019-02-06T15:38:33.371Z,55.52
2019-02-06T15:41:05.839Z,52.95
2019-02-06T15:43:38.815Z,51.77
2019-02-06T15:46:14.545Z,52.27
2019-02-06T15:48:49.916Z,53.05
2019-02-06T15:51:21.263Z,56.37
2019-02-06T15:53:54.195Z,60.88
2019-02-06T15:56:32.851Z,57.40
2019-02-06T15:59:02.515Z,61.48
2019-02-06T16:01:32.074Z,62.33
2019-02-06T16:04:22.763Z,62.08
2019-02-06T16:06:59.443Z,65.17
2019-02-06T16:09:31.868Z,63.08
2019-02-06T16:12:04.209Z,70.20
2019-02-06T16:14:36.871Z,65.52
2019-02-06T16:17:06.433Z,65.60
2019-02-06T16:19:35.963Z,64.22
2019-02-06T16:22:12.203Z,69.82
2019-02-06T16:24:48.021Z,66.30
2019-02-06T16:27:23.680Z,72.82
2019-02-06T16:30:09.858Z,76.00
2019-02-06T16:32:39.505Z,73.33
2019-02-06T16:35:24.357Z,72.65
2019-02-06T16:37:53.895Z,67.62
2019-02-06T16:40:26.520Z,71.57
2019-02-06T16:42:59.342Z,70.08
2019-02-06T16:45:31.539Z,84.47
2019-02-06T16:48:10.533Z,83.97
2019-02-06T16:50:45.831Z,80.35
2019-02-06T16:53:21.352Z,84.28
2019-02-06T16:55:50.906Z,82.88
2019-02-06T16:58:20.464Z,81.12
2019-02-06T17:01:06.955Z,89.92
2019-02-06T17:03:51.958Z,82.65
2019-02-06T17:06:21.515Z,80.80
2019-02-06T17:08:51.068Z,82.05
2019-02-06T17:11:37.344Z,80.47
2019-02-06T17:14:06.907Z,75.92
2019-02-06T17:16:36.471Z,77.25
2019-02-06T17:19:06.263Z,76.75
2019-02-06T17:21:36.225Z,71.42
2019-02-06T17:24:05.815Z,78.15
2019-02-06T17:26:35.371Z,77.40
2019-02-06T17:29:14.117Z,76.80
2019-02-06T17:31:43.677Z,75.05
2019-02-06T17:34:22.411Z,80.95
2019-02-06T17:36:54.807Z,75.20
2019-02-06T17:39:24.743Z,75.92
2019-02-06T17:42:00.522Z,72.65
2019-02-06T17:44:36.031Z,75.20
2019-02-06T17:47:11.347Z,76.12
2019-02-06T17:49:50.129Z,81.10
2019-02-06T17:52:19.710Z,80.28
2019-02-06T17:54:52.191Z,83.82
2019-02-06T17:57:20.142Z,82.33
2019-02-06T17:59:48.079Z,80.12
2019-02-06T18:02:16.388Z,80.95
2019-02-06T18:04:44.471Z,81.15
2019-02-06T18:07:12.410Z,78.33
2019-02-06T18:09:41.451Z,73.62
2019-02-06T18:12:09.375Z,72.50
2019-02-06T18:14:37.310Z,66.90
2019-02-06T18:17:05.247Z,69.05
2019-02-06T18:19:36.050Z,65.22
2019-02-06T18:22:04.367Z,78.75
2019-02-06T18:24:32.543Z,77.42
2019-02-06T18:27:00.491Z,80.90
2019-02-06T18:29:28.491Z,102.60
2019-02-06T18:31:56.768Z,91.22
2019-02-06T18:34:24.687Z,84.95
2019-02-06T18:36:52.630Z,84.72
2019-02-06T18:39:20.629Z,75.60
2019-02-06T18:41:51.423Z,73.05
2019-02-06T18:44:21.035Z,75.95
2019-02-06T18:46:49.623Z,75.37
2019-02-06T18:49:17.887Z,73.33
2019-02-06T18:51:45.801Z,74.20
2019-02-06T18:54:13.967Z,69.65
2019-02-06T18:56:42.266Z,74.47
2019-02-06T18:59:10.203Z,70.72
2019-02-06T19:01:38.152Z,72.82
2019-02-06T19:04:06.199Z,72.78
2019-02-06T19:06:34.574Z,76.30
2019-02-06T19:09:02.947Z,75.30
2019-02-06T19:11:32.538Z,73.72
2019-02-06T19:14:00.462Z,82.67
2019-02-06T19:16:28.798Z,78.50
2019-02-06T19:18:57.211Z,80.70
2019-02-06T19:21:25.139Z,79.45
2019-02-06T19:23:53.142Z,74.90
2019-02-06T19:26:21.398Z,74.25
2019-02-06T19:28:49.405Z,65.03
2019-02-06T19:31:17.346Z,65.72
2019-02-06T19:33:45.304Z,65.15
2019-02-06T19:36:13.313Z,61.92
2019-02-06T19:38:41.710Z,66.70
2019-02-06T19:41:09.947Z,64.53
2019-02-06T19:43:37.959Z,64.77
2019-02-06T19:46:05.883Z,67.70
2019-02-06T19:48:34.193Z,70.10
2019-02-06T19:51:02.122Z,63.70
2019-02-06T19:53:31.647Z,61.55
2019-02-06T19:55:59.810Z,60.03
2019-02-06T19:58:28.110Z,56.30
2019-02-06T20:00:56.033Z,62.62
2019-02-06T20:03:23.959Z,69.05
2019-02-06T20:05:52.288Z,60.60
2019-02-06T20:08:20.448Z,74.10
2019-02-06T20:10:52.370Z,81.82
2019-02-06T20:13:20.300Z,82.67
2019-02-06T20:15:48.278Z,83.55
2019-02-06T20:18:16.197Z,81.32
2019-02-06T20:20:44.206Z,80.28
2019-02-06T20:23:12.123Z,79.58
2019-02-06T20:25:40.051Z,88.70
2019-02-06T20:28:08.005Z,87.05
2019-02-06T20:30:35.999Z,89.65
2019-02-06T20:33:04.663Z,94.92
2019-02-06T20:35:32.975Z,101.18
2019-02-06T20:38:00.903Z,97.02
2019-02-06T20:40:30.539Z,77.12
2019-02-06T20:42:58.456Z,94.75
2019-02-06T20:45:26.372Z,90.92
2019-02-06T20:47:55.268Z,79.65
2019-02-06T20:50:24.825Z,71.80
2019-02-06T20:52:52.768Z,64.40
2019-02-06T20:55:21.063Z,70.42
2019-02-06T20:57:48.983Z,82.42
2019-02-06T21:00:24.080Z,89.83
2019-02-06T21:02:52.310Z,83.97
2019-02-06T21:05:20.231Z,79.82
2019-02-06T21:07:48.463Z,79.12
2019-02-06T21:10:20.593Z,67.60
2019-02-06T21:12:48.535Z,67.32
2019-02-06T21:15:16.451Z,61.28
2019-02-06T21:17:44.430Z,67.53
2019-02-06T21:20:16.306Z,60.50
2019-02-06T21:22:44.234Z,69.20
2019-02-06T21:25:13.335Z,66.70
2019-02-06T21:27:41.248Z,73.60
2019-02-06T21:30:16.245Z,69.62
2019-02-06T21:32:44.161Z,75.80
2019-02-06T21:35:12.163Z,77.80
2019-02-06T21:37:40.093Z,77.90
2019-02-06T21:40:15.347Z,71.60
2019-02-06T21:42:43.542Z,72.67
2019-02-06T21:45:11.865Z,77.58
2019-02-06T21:47:40.096Z,76.97
2019-02-06T21:50:09.648Z,78.95
2019-02-06T21:52:37.640Z,75.55
2019-02-06T21:55:07.587Z,73.50
2019-02-06T21:57:35.868Z,72.27
2019-02-06T22:00:05.420Z,71.37
2019-02-06T22:02:34.811Z,66.20
2019-02-06T22:05:03.268Z,77.65
2019-02-06T22:07:31.261Z,73.22
2019-02-06T22:09:59.191Z,67.27
2019-02-06T22:12:27.284Z,75.97
2019-02-06T22:14:55.455Z,72.08
2019-02-06T22:17:23.379Z,77.67
2019-02-06T22:19:51.310Z,72.25
2019-02-06T22:22:19.464Z,77.87
2019-02-06T22:24:47.386Z,82.53
2019-02-06T22:27:15.311Z,71.47
2019-02-06T22:29:43.227Z,76.77
2019-02-06T22:32:11.384Z,79.37
2019-02-06T22:34:39.307Z,75.25
2019-02-06T22:37:07.313Z,77.78
2019-02-06T22:39:35.229Z,82.72
2019-02-06T22:42:03.154Z,77.58
2019-02-06T22:44:31.451Z,78.12
2019-02-06T22:46:59.379Z,78.02
2019-02-06T22:49:27.299Z,71.70
2019-02-06T22:51:55.243Z,75.00
2019-02-06T22:54:23.149Z,77.27
2019-02-06T22:56:51.066Z,76.72
2019-02-06T22:59:18.991Z,70.05
2019-02-06T23:01:47.403Z,70.30
2019-02-06T23:04:15.947Z,69.53
2019-02-06T23:06:43.875Z,72.70
2019-02-06T23:09:11.792Z,77.10
2019-02-06T23:11:40.119Z,80.03
2019-02-06T23:14:17.189Z,74.65
2019-02-06T23:16:37.731Z,86.32
2019-02-06T23:19:05.724Z,90.15
2019-02-06T23:21:33.648Z,92.22
2019-02-06T23:24:01.565Z,97.85
2019-02-06T23:26:29.491Z,92.82
2019-02-06T23:28:57.409Z,84.13
2019-02-06T23:31:25.336Z,85.47
2019-02-06T23:33:53.736Z,75.87
2019-02-06T23:36:21.660Z,81.95
2019-02-06T23:38:49.592Z,75.35
2019-02-06T23:41:17.508Z,70.75
2019-02-06T23:43:45.432Z,77.17
2019-02-06T23:46:13.347Z,74.35
2019-02-06T23:48:41.353Z,76.75
2019-02-06T23:51:09.544Z,78.45
2019-02-06T23:53:37.785Z,71.17
2019-02-06T23:56:06.678Z,71.17
2019-02-06T23:58:34.605Z,76.60
